Lincoln, NE

3:53 PM CDT on April 27, 2017 (GMT -0500)
30th and South Street Neighborhood | | Change Station

Elev 1214 ft 40.79 °N, 96.68 °W | Updated 6 minutes ago

Mostly Cloudy
Mostly Cloudy
62.2 °F
Feels Like 62.2 °F
N
1.7
Wind Variable Wind from SSW

Today
High -- | Low -- °F
--% Chance of Precip.
Yesterday
High -- | Low -- °F
Precip. -- in
Pressure 29.72 in
Visibility 10.0 miles
Clouds Few 11000 ft
Dew Point 34 °F
Humidity 35%
Rainfall 0.00 in
Snow Depth Not available.
6:30 AM 8:19 PM
Waxing Crescent, 3% visible
METAR KLNK 271954Z 29008KT 10SM FEW110 14/00 A2972 RMK AO2 SLP063 T01440000
Pressure 29.72 in
Visibility 10.0 miles
Clouds Few 11000 ft
Dew Point 34 °F
Humidity 35%
Rainfall 0.00 in
Snow Depth Not available.
6:30 AM 8:19 PM
Waxing Crescent, 3% visible
METAR KLNK 271954Z 29008KT 10SM FEW110 14/00 A2972 RMK AO2 SLP063 T01440000

Get Severe Weather Alerts

Thanks for signing up!

Be on the lookout for a verification email in your inbox.

You'll start receiving the daily forecast at 8 AM.

×

10-Day Weather Forecast

Almanac

Astronomy

Apr. 27, 2017 Rise Set
Actual Time
Civil Twilight
Nautical Twilight
Astronomical Twilight
Moon
Length of Visible Light
Length of Day
Tomorrow will be .
, % of the Moon is Illuminated

Today's Extremes

State Highs State Lows

Community

WunderPhotos

WunderBlog® & News

Nearby

Air Quality

  Air Quality AQ Index Pollutant
Not available.

Snow Depth

Station Depth Elevation

Earthquake Activity

City Distance Mag. Time & Date
Minimum magnitude displayed is 2.5.

Coastal Water Temperatures

Place Temperature

Stations

Nearby Weather Stations

Station Location Temp. Windchill Dew Point Humidity Wind Precip. Elev Updated Type
                   

Watches & Warnings

There are currently no watches in effect.